createdAt,value
2023-02-11T00:00:32.797Z,999.90
2023-02-11T00:01:32.639Z,999.90
2023-02-11T00:02:32.732Z,999.90
2023-02-11T00:03:33.788Z,999.90
2023-02-11T00:04:32.633Z,999.90
2023-02-11T00:05:32.694Z,999.90
2023-02-11T00:06:32.643Z,999.90
2023-02-11T00:07:32.654Z,999.90
2023-02-11T00:08:32.752Z,999.90
2023-02-11T00:09:32.656Z,999.90
2023-02-11T00:10:32.755Z,999.90
2023-02-11T00:11:32.530Z,999.90
2023-02-11T00:12:32.550Z,999.90
2023-02-11T00:13:32.620Z,999.90
2023-02-11T00:14:32.558Z,999.90
2023-02-11T00:15:33.653Z,999.90
2023-02-11T00:16:32.666Z,999.90
2023-02-11T00:17:32.477Z,999.90
2023-02-11T00:18:32.560Z,999.90
2023-02-11T00:19:32.399Z,999.90
2023-02-11T00:20:32.485Z,999.90
2023-02-11T00:21:32.541Z,999.90
2023-02-11T00:22:32.384Z,999.90
2023-02-11T00:23:32.393Z,999.90
2023-02-11T00:24:32.436Z,999.90
2023-02-11T00:25:32.371Z,999.90
2023-02-11T00:26:32.408Z,999.90
2023-02-11T00:27:32.405Z,999.90
2023-02-11T00:28:32.390Z,999.90
2023-02-11T00:29:32.384Z,999.90
2023-02-11T00:30:32.365Z,999.90
2023-02-11T00:31:32.389Z,999.90
2023-02-11T00:32:32.526Z,999.90
2023-02-11T00:33:32.367Z,999.90
2023-02-11T00:34:32.325Z,999.90
2023-02-11T00:35:32.517Z,999.90
2023-02-11T00:36:32.405Z,999.90
2023-02-11T00:37:32.512Z,999.90
2023-02-11T00:38:32.349Z,999.90
2023-02-11T00:39:32.308Z,999.90
2023-02-11T00:41:07.025Z,999.90
2023-02-11T00:41:32.726Z,945.90
2023-02-11T00:42:32.722Z,999.90
2023-02-11T00:43:32.667Z,999.90
2023-02-11T00:44:32.379Z,999.90
2023-02-11T00:45:32.463Z,999.90
2023-02-11T00:46:32.407Z,999.90
2023-02-11T00:47:32.370Z,999.90
2023-02-11T00:48:32.386Z,999.90
2023-02-11T00:49:32.306Z,999.90
2023-02-11T00:50:32.289Z,999.90
2023-02-11T00:51:32.427Z,999.90
2023-02-11T00:52:32.341Z,999.90
2023-02-11T00:53:32.279Z,999.90
2023-02-11T00:54:32.967Z,999.90
2023-02-11T00:55:32.256Z,999.90
2023-02-11T00:56:32.304Z,999.90
2023-02-11T00:57:32.235Z,999.90
2023-02-11T00:58:32.353Z,999.90
2023-02-11T00:59:32.293Z,999.90
2023-02-11T01:00:32.321Z,999.90
2023-02-11T01:01:32.306Z,999.90
2023-02-11T01:02:32.250Z,999.90
2023-02-11T01:03:32.231Z,999.90
2023-02-11T01:04:32.240Z,999.90
2023-02-11T01:05:32.337Z,999.90
2023-02-11T01:06:32.189Z,999.90
2023-02-11T01:07:32.230Z,999.90
2023-02-11T01:08:32.244Z,999.90
2023-02-11T01:09:32.161Z,999.90
2023-02-11T01:10:33.272Z,999.90
2023-02-11T01:11:32.248Z,999.90
2023-02-11T01:12:34.016Z,999.90
2023-02-11T01:13:32.241Z,999.90
2023-02-11T01:14:32.228Z,999.90
2023-02-11T01:15:32.242Z,999.90
2023-02-11T01:16:32.172Z,999.90
2023-02-11T01:17:32.246Z,999.90
2023-02-11T01:18:32.135Z,999.90
2023-02-11T01:20:09.098Z,999.90
2023-02-11T01:20:32.677Z,982.90
2023-02-11T01:23:17.560Z,998.80
2023-02-11T01:24:19.026Z,999.90
2023-02-11T01:25:19.076Z,999.90
2023-02-11T01:26:19.040Z,999.90
2023-02-11T01:27:18.733Z,999.90
2023-02-11T01:28:18.792Z,999.90
2023-02-11T01:29:18.679Z,999.90
2023-02-11T01:30:18.671Z,999.90
2023-02-11T01:31:18.777Z,999.90
2023-02-11T01:32:18.743Z,999.90
2023-02-11T01:33:18.680Z,999.90
2023-02-11T01:34:18.654Z,999.90
2023-02-11T01:35:18.768Z,999.90
2023-02-11T01:36:18.645Z,999.90
2023-02-11T01:39:16.957Z,999.90
2023-02-11T01:42:16.397Z,994.70
2023-02-11T01:43:17.951Z,999.90
2023-02-11T01:44:17.999Z,999.90
2023-02-11T01:45:17.657Z,999.90
2023-02-11T01:46:17.518Z,999.70
2023-02-11T01:47:17.479Z,990.50
2023-02-11T01:48:17.489Z,967.30
2023-02-11T01:49:17.433Z,966.20
2023-02-11T01:50:17.457Z,974.80
2023-02-11T01:51:17.521Z,997.90
2023-02-11T01:52:17.559Z,997.10
2023-02-11T01:53:17.486Z,999.50
2023-02-11T01:54:17.511Z,987.20
2023-02-11T01:55:17.692Z,976.60
2023-02-11T01:56:17.450Z,984.50
2023-02-11T01:57:17.417Z,980.60
2023-02-11T01:58:17.481Z,993.70
2023-02-11T01:59:17.495Z,989.10
2023-02-11T02:00:17.451Z,999.90
2023-02-11T02:01:17.551Z,999.90
2023-02-11T02:02:17.466Z,999.90
2023-02-11T02:03:17.448Z,999.90
2023-02-11T02:04:17.414Z,999.90
2023-02-11T02:05:17.401Z,999.90
2023-02-11T02:06:17.435Z,999.90
2023-02-11T02:07:19.236Z,999.90
2023-02-11T02:08:18.410Z,999.90
2023-02-11T02:09:17.432Z,991.80
2023-02-11T02:10:17.401Z,978.80
2023-02-11T02:13:27.062Z,981.10
2023-02-11T02:14:28.525Z,992.10
2023-02-11T02:17:32.196Z,989.20
2023-02-11T02:18:33.253Z,989.70
2023-02-11T02:19:32.251Z,999.90
2023-02-11T02:20:32.322Z,999.90
2023-02-11T02:21:32.261Z,999.90
2023-02-11T02:22:32.316Z,999.90
2023-02-11T02:23:32.235Z,999.90
2023-02-11T02:24:32.345Z,999.90
2023-02-11T02:25:32.228Z,994.50
2023-02-11T02:26:32.226Z,967.60
2023-02-11T02:27:32.207Z,953.60
2023-02-11T02:28:32.188Z,981.40
2023-02-11T02:29:32.165Z,985.70
2023-02-11T02:30:32.225Z,985.80
2023-02-11T02:31:32.175Z,990.60
2023-02-11T02:32:32.145Z,980.50
2023-02-11T02:33:32.162Z,986.20
2023-02-11T02:34:32.247Z,957.90
2023-02-11T02:35:32.140Z,993.90
2023-02-11T02:36:32.148Z,989.20
2023-02-11T02:37:32.214Z,986.70
2023-02-11T02:38:32.127Z,999.40
2023-02-11T02:39:32.083Z,999.90
2023-02-11T02:40:32.210Z,976.60
2023-02-11T02:41:32.181Z,975.40
2023-02-11T02:42:32.184Z,986.60
2023-02-11T02:43:32.180Z,999.90
2023-02-11T02:44:32.089Z,999.90
2023-02-11T02:45:32.216Z,999.90
2023-02-11T02:46:32.142Z,999.90
2023-02-11T02:47:32.050Z,995.50
2023-02-11T02:48:32.108Z,976.40
2023-02-11T02:49:32.173Z,981.50
2023-02-11T02:50:32.020Z,971.70
2023-02-11T02:52:10.033Z,966.90
2023-02-11T02:52:33.039Z,981.30
2023-02-11T02:53:32.012Z,992.90
2023-02-11T02:54:32.046Z,999.90
2023-02-11T02:56:05.230Z,999.90
2023-02-11T02:56:32.613Z,936.20
2023-02-11T02:57:32.260Z,999.90
2023-02-11T02:58:32.106Z,999.90
2023-02-11T02:59:31.905Z,999.90
2023-02-11T03:00:31.959Z,999.60
2023-02-11T03:01:31.935Z,976.90
2023-02-11T03:02:31.980Z,963.00
2023-02-11T03:03:52.962Z,949.20
2023-02-11T03:04:31.884Z,954.40
2023-02-11T03:05:32.008Z,947.20
2023-02-11T03:06:32.018Z,953.00
2023-02-11T03:07:31.883Z,968.90
2023-02-11T03:08:32.038Z,999.90
2023-02-11T03:09:31.937Z,999.90
2023-02-11T03:10:31.850Z,999.90
2023-02-11T03:11:31.887Z,999.90
2023-02-11T03:12:32.069Z,999.90
2023-02-11T03:13:31.839Z,999.90
2023-02-11T03:14:31.858Z,999.90
2023-02-11T03:15:31.827Z,727.60
2023-02-11T03:17:05.091Z,335.40
2023-02-11T03:17:32.124Z,379.50
2023-02-11T03:18:32.198Z,300.40
2023-02-11T03:19:31.978Z,308.50
2023-02-11T03:20:31.869Z,302.70
2023-02-11T03:21:31.883Z,303.60
2023-02-11T03:22:31.796Z,294.20
2023-02-11T03:23:31.867Z,290.60
2023-02-11T03:24:31.806Z,281.70
2023-02-11T03:25:31.754Z,270.10
2023-02-11T03:26:31.837Z,278.50
2023-02-11T03:27:31.831Z,271.60
2023-02-11T03:29:12.962Z,273.80
2023-02-11T03:29:31.723Z,268.70
2023-02-11T03:30:31.773Z,271.20
2023-02-11T03:31:31.817Z,265.70
2023-02-11T03:32:44.030Z,269.90
2023-02-11T03:33:31.855Z,282.00
2023-02-11T03:34:31.697Z,273.00
2023-02-11T03:35:31.844Z,278.30
2023-02-11T03:36:31.685Z,275.20
2023-02-11T03:37:31.681Z,277.20
2023-02-11T03:38:31.710Z,276.90
2023-02-11T03:39:31.725Z,278.90
2023-02-11T03:40:31.645Z,274.10
2023-02-11T03:41:31.705Z,275.70
2023-02-11T03:42:32.789Z,273.20
2023-02-11T03:43:31.597Z,291.30
2023-02-11T03:44:31.689Z,287.70
2023-02-11T03:45:31.776Z,314.20
2023-02-11T03:46:31.615Z,296.50
2023-02-11T03:47:31.706Z,296.70
2023-02-11T03:48:31.657Z,289.10
2023-02-11T03:49:31.598Z,342.10
2023-02-11T03:50:31.753Z,353.30
2023-02-11T03:51:31.646Z,390.20
2023-02-11T03:52:31.597Z,439.60
2023-02-11T03:53:31.623Z,486.20
2023-02-11T03:54:31.565Z,495.20
2023-02-11T03:55:31.594Z,509.30
2023-02-11T03:56:31.576Z,436.30
2023-02-11T03:57:31.582Z,404.00
2023-02-11T03:58:31.539Z,448.90
2023-02-11T03:59:31.543Z,428.40
2023-02-11T04:00:31.517Z,407.50
2023-02-11T04:01:31.764Z,339.70
2023-02-11T04:02:31.470Z,306.80
2023-02-11T04:03:31.515Z,319.00
2023-02-11T04:04:31.486Z,300.90
2023-02-11T04:05:31.469Z,327.50
2023-02-11T04:06:31.567Z,285.10
2023-02-11T04:07:31.505Z,295.00
2023-02-11T04:08:31.464Z,373.30
2023-02-11T04:09:31.424Z,385.00
2023-02-11T04:10:31.456Z,381.60
2023-02-11T04:11:31.440Z,433.40
2023-02-11T04:12:31.549Z,381.40
2023-02-11T04:14:30.042Z,373.90
2023-02-11T04:14:32.597Z,340.30
2023-02-11T04:15:31.374Z,358.40
2023-02-11T04:16:31.513Z,356.00
2023-02-11T04:17:31.569Z,344.00
2023-02-11T04:18:31.466Z,399.50
2023-02-11T04:19:31.372Z,383.40
2023-02-11T04:20:31.447Z,337.70
2023-02-11T04:21:31.513Z,342.80
2023-02-11T04:22:31.446Z,348.50
2023-02-11T04:23:31.485Z,379.00
2023-02-11T04:24:31.382Z,411.60
2023-02-11T04:25:31.436Z,451.00
2023-02-11T04:27:04.574Z,497.60
2023-02-11T04:27:31.647Z,999.90
2023-02-11T04:28:31.961Z,575.30
2023-02-11T04:29:31.591Z,523.50
2023-02-11T04:30:31.395Z,516.40
2023-02-11T04:31:31.396Z,516.80
2023-02-11T04:32:31.375Z,518.90
2023-02-11T04:33:31.353Z,508.10
2023-02-11T04:34:31.366Z,503.20
2023-02-11T04:35:31.369Z,520.90
2023-02-11T04:36:31.360Z,497.60
2023-02-11T04:37:31.313Z,485.00
2023-02-11T04:38:31.344Z,441.20
2023-02-11T04:39:31.401Z,482.90
2023-02-11T04:40:31.418Z,479.20
2023-02-11T04:41:31.284Z,480.70
2023-02-11T04:42:31.389Z,432.60
2023-02-11T04:43:31.292Z,397.90
2023-02-11T04:44:31.427Z,305.80
2023-02-11T04:45:31.277Z,286.60
2023-02-11T04:46:31.281Z,291.60
2023-02-11T04:47:31.280Z,294.00
2023-02-11T04:48:31.228Z,287.70
2023-02-11T04:49:31.373Z,288.70
2023-02-11T04:50:31.257Z,287.90
2023-02-11T04:51:31.207Z,278.80
2023-02-11T04:53:04.520Z,278.60
2023-02-11T04:53:31.866Z,485.60
2023-02-11T04:54:31.808Z,260.70
2023-02-11T04:55:31.293Z,259.40
2023-02-11T04:56:31.209Z,257.40
2023-02-11T04:57:31.278Z,265.60
2023-02-11T04:58:31.184Z,257.60
2023-02-11T04:59:31.200Z,265.30
2023-02-11T05:00:31.200Z,261.30
2023-02-11T05:01:31.346Z,254.80
2023-02-11T05:03:04.543Z,258.70
2023-02-11T05:03:31.520Z,472.60
2023-02-11T05:04:31.951Z,272.30
2023-02-11T05:05:31.135Z,265.20
2023-02-11T05:06:31.145Z,264.80
2023-02-11T05:07:31.085Z,261.60
2023-02-11T05:08:31.019Z,258.20
2023-02-11T05:09:31.020Z,274.90
2023-02-11T05:12:28.623Z,448.90
2023-02-11T05:13:30.363Z,363.10
2023-02-11T05:14:29.768Z,298.00
2023-02-11T05:15:29.691Z,287.30
2023-02-11T05:16:29.672Z,273.50
2023-02-11T05:17:29.640Z,281.60
2023-02-11T05:18:29.623Z,272.70
2023-02-11T05:19:29.583Z,267.30
2023-02-11T05:20:29.662Z,266.20
2023-02-11T05:21:29.619Z,262.20
2023-02-11T05:22:29.637Z,269.70
2023-02-11T05:23:29.748Z,269.60
2023-02-11T05:24:29.604Z,264.90
2023-02-11T05:25:29.642Z,270.20
2023-02-11T05:26:29.582Z,266.80
2023-02-11T05:27:29.659Z,249.60
2023-02-11T05:28:29.621Z,245.30
2023-02-11T05:29:29.605Z,253.10
2023-02-11T05:30:29.563Z,263.50
2023-02-11T05:31:29.608Z,247.80
2023-02-11T05:32:29.578Z,246.00
2023-02-11T05:33:29.559Z,263.10
2023-02-11T05:34:29.577Z,256.10
2023-02-11T05:35:29.497Z,273.90
2023-02-11T05:36:33.256Z,265.90
2023-02-11T05:37:30.689Z,266.80
2023-02-11T05:38:29.511Z,249.50
2023-02-11T05:39:29.540Z,250.70
2023-02-11T05:40:29.507Z,273.10
2023-02-11T05:41:29.850Z,247.40
2023-02-11T05:42:29.938Z,306.80
2023-02-11T05:43:29.441Z,282.60
2023-02-11T05:44:29.538Z,301.00
2023-02-11T05:45:29.544Z,272.10
2023-02-11T05:46:29.502Z,282.10
2023-02-11T05:47:29.466Z,261.10
2023-02-11T05:48:29.481Z,280.00
2023-02-11T05:50:02.682Z,248.40
2023-02-11T05:50:29.873Z,532.20
2023-02-11T05:51:29.835Z,260.20
2023-02-11T05:52:29.616Z,250.10
2023-02-11T05:53:29.392Z,307.50
2023-02-11T05:54:29.360Z,417.90
2023-02-11T05:55:29.328Z,377.60
2023-02-11T05:56:29.385Z,351.80
2023-02-11T05:57:29.450Z,290.60
2023-02-11T05:58:29.261Z,261.50
2023-02-11T05:59:29.343Z,261.90
2023-02-11T06:00:29.285Z,271.70
2023-02-11T06:01:29.365Z,271.60
2023-02-11T06:02:29.316Z,276.30
2023-02-11T06:03:29.339Z,254.80
2023-02-11T06:04:29.197Z,275.50
2023-02-11T06:06:02.625Z,260.00
2023-02-11T06:06:29.798Z,622.00
2023-02-11T06:07:30.085Z,287.90
2023-02-11T06:09:04.176Z,363.70
2023-02-11T06:09:29.687Z,732.00
2023-02-11T06:10:29.874Z,323.30
2023-02-11T06:11:29.418Z,270.60
2023-02-11T06:12:29.639Z,287.80
2023-02-11T06:13:29.440Z,246.30
2023-02-11T06:14:29.241Z,273.50
2023-02-11T06:16:02.657Z,260.70
2023-02-11T06:16:29.706Z,502.50
2023-02-11T06:17:30.072Z,306.70
2023-02-11T06:18:29.531Z,286.80
2023-02-11T06:19:29.397Z,278.50
2023-02-11T06:20:29.335Z,270.90
2023-02-11T06:21:42.874Z,262.60
2023-02-11T06:22:31.182Z,250.80
2023-02-11T06:23:30.420Z,285.20
2023-02-11T06:24:51.405Z,269.10
2023-02-11T06:25:31.244Z,283.10
2023-02-11T06:26:29.284Z,322.80
2023-02-11T06:27:29.260Z,299.20
2023-02-11T06:28:29.278Z,326.80
2023-02-11T06:29:29.581Z,288.60
2023-02-11T06:30:29.155Z,293.60
2023-02-11T06:31:29.306Z,259.30
2023-02-11T06:32:43.212Z,286.90
2023-02-11T06:33:31.343Z,303.10
2023-02-11T06:34:29.277Z,281.90
2023-02-11T06:35:29.326Z,327.20
2023-02-11T06:36:29.160Z,302.70
2023-02-11T06:37:29.077Z,340.70
2023-02-11T06:38:29.240Z,321.10
2023-02-11T06:39:29.105Z,342.50
2023-02-11T06:40:29.381Z,359.70
2023-02-11T06:41:29.041Z,330.40
2023-02-11T06:42:29.036Z,372.60
2023-02-11T06:43:28.953Z,351.20
2023-02-11T06:44:29.056Z,360.10
2023-02-11T06:45:28.987Z,358.70
2023-02-11T06:46:28.986Z,363.80
2023-02-11T06:47:29.044Z,357.70
2023-02-11T06:48:29.036Z,329.80
2023-02-11T06:49:29.021Z,337.30
2023-02-11T06:50:29.095Z,357.30
2023-02-11T06:51:29.195Z,319.50
2023-02-11T06:52:29.081Z,327.60
2023-02-11T06:53:29.004Z,304.90
2023-02-11T06:55:02.651Z,269.30
2023-02-11T06:55:29.781Z,634.20
2023-02-11T06:56:29.911Z,327.20
2023-02-11T06:57:29.438Z,322.40
2023-02-11T06:58:29.080Z,306.70
2023-02-11T06:59:29.139Z,279.20
2023-02-11T07:00:29.018Z,292.00
2023-02-11T07:01:29.143Z,287.90
2023-02-11T07:02:29.074Z,314.40
2023-02-11T07:03:29.104Z,320.30
2023-02-11T07:04:28.983Z,367.00
2023-02-11T07:05:29.087Z,345.30
2023-02-11T07:06:29.015Z,307.50
2023-02-11T07:07:28.954Z,333.70
2023-02-11T07:08:28.931Z,337.40
2023-02-11T07:09:29.109Z,338.80
2023-02-11T07:10:29.150Z,327.60
2023-02-11T07:11:47.722Z,333.90
2023-02-11T07:12:28.990Z,280.30
2023-02-11T07:13:29.076Z,278.10
2023-02-11T07:14:28.929Z,281.30
2023-02-11T07:16:02.561Z,274.00
2023-02-11T07:16:30.057Z,690.60
2023-02-11T07:17:29.690Z,350.00
2023-02-11T07:18:28.930Z,330.60
2023-02-11T07:19:28.919Z,336.70
2023-02-11T07:20:28.784Z,333.50
2023-02-11T07:21:28.713Z,316.80
2023-02-11T07:22:28.964Z,294.80
2023-02-11T07:23:28.779Z,306.50
2023-02-11T07:24:28.742Z,288.20
2023-02-11T07:25:28.892Z,295.70
2023-02-11T07:26:29.207Z,299.30
2023-02-11T07:27:28.979Z,302.20
2023-02-11T07:28:29.613Z,332.90
2023-02-11T07:29:28.843Z,334.00
2023-02-11T07:30:28.833Z,343.20
2023-02-11T07:31:28.941Z,337.50
2023-02-11T07:33:02.867Z,370.20
2023-02-11T07:33:30.699Z,785.90
2023-02-11T07:34:30.655Z,321.20
2023-02-11T07:35:28.817Z,294.80
2023-02-11T07:36:28.752Z,300.90
2023-02-11T07:37:28.995Z,316.60
2023-02-11T07:38:28.847Z,312.30
2023-02-11T07:39:28.725Z,333.00
2023-02-11T07:40:28.870Z,329.80
2023-02-11T07:41:28.786Z,356.80
2023-02-11T07:42:28.770Z,367.00
2023-02-11T07:43:28.740Z,322.60
2023-02-11T07:44:28.573Z,327.50
2023-02-11T07:45:28.687Z,339.00
2023-02-11T07:46:28.900Z,333.50
2023-02-11T07:47:29.177Z,367.40
2023-02-11T07:48:28.678Z,347.00
2023-02-11T07:49:28.589Z,442.60
2023-02-11T07:50:28.515Z,366.90
2023-02-11T07:51:28.638Z,358.30
2023-02-11T07:52:28.620Z,372.20
2023-02-11T07:53:28.490Z,359.00
2023-02-11T07:54:29.693Z,432.20
2023-02-11T07:55:28.503Z,339.50
2023-02-11T07:56:29.296Z,429.90
2023-02-11T07:58:02.200Z,473.90
2023-02-11T07:58:30.272Z,797.20
2023-02-11T08:00:06.236Z,431.20
2023-02-11T08:00:29.880Z,777.40
2023-02-11T08:01:29.289Z,386.80
2023-02-11T08:03:04.832Z,296.50
2023-02-11T08:03:29.970Z,763.00
2023-02-11T08:04:29.357Z,361.00
2023-02-11T08:05:28.660Z,288.70
2023-02-11T08:06:28.873Z,327.70
2023-02-11T08:07:28.838Z,336.70
2023-02-11T08:08:29.165Z,348.70
2023-02-11T08:09:28.587Z,300.50
2023-02-11T08:10:28.689Z,364.80
2023-02-11T08:11:28.978Z,396.80
2023-02-11T08:12:28.635Z,336.70
2023-02-11T08:13:28.791Z,381.90
2023-02-11T08:17:02.874Z,534.40
2023-02-11T08:18:02.574Z,293.10
2023-02-11T08:21:14.933Z,491.50
2023-02-11T08:22:17.287Z,313.50
2023-02-11T08:23:17.162Z,275.40
2023-02-11T08:24:16.292Z,278.80
2023-02-11T08:25:16.363Z,277.80
2023-02-11T08:26:16.367Z,301.50
2023-02-11T08:27:17.065Z,301.80
2023-02-11T08:28:16.549Z,302.40
2023-02-11T08:29:16.574Z,403.80
2023-02-11T08:30:16.434Z,345.80
2023-02-11T08:46:27.210Z,617.60
2023-02-11T08:50:03.277Z,560.90
2023-02-11T08:51:05.103Z,376.10
2023-02-11T08:52:04.949Z,355.30
2023-02-11T08:55:06.907Z,421.10
2023-02-11T08:56:08.547Z,305.60
2023-02-11T08:57:08.276Z,274.10
2023-02-11T08:58:08.057Z,266.90
2023-02-11T08:59:08.147Z,296.00
2023-02-11T09:00:07.995Z,274.20
2023-02-11T09:01:08.066Z,297.60
2023-02-11T09:02:08.161Z,272.20
2023-02-11T09:03:07.987Z,292.00
2023-02-11T09:04:08.065Z,304.60
2023-02-11T09:05:07.985Z,308.00
2023-02-11T09:06:07.997Z,287.80
2023-02-11T09:07:08.054Z,396.80
2023-02-11T09:08:08.010Z,376.80
2023-02-11T09:09:07.999Z,386.30
2023-02-11T09:10:08.018Z,324.80
2023-02-11T09:11:07.895Z,393.60
2023-02-11T09:12:07.856Z,374.20
2023-02-11T09:13:07.921Z,327.20
2023-02-11T09:14:07.796Z,363.70
2023-02-11T09:15:07.833Z,430.40
2023-02-11T09:16:07.865Z,440.00
2023-02-11T09:17:07.907Z,385.10
2023-02-11T09:18:07.844Z,402.60
2023-02-11T09:19:08.324Z,415.50
2023-02-11T09:20:10.663Z,492.10
2023-02-11T09:21:08.761Z,379.80
2023-02-11T09:22:07.785Z,470.00
2023-02-11T09:23:07.774Z,398.20
2023-02-11T09:24:08.017Z,450.60
2023-02-11T09:25:07.928Z,518.10
2023-02-11T09:26:09.307Z,490.20
2023-02-11T09:27:08.747Z,450.40
2023-02-11T09:28:07.939Z,423.60
2023-02-11T09:29:07.865Z,373.30
2023-02-11T09:30:07.898Z,427.30
2023-02-11T09:31:07.999Z,423.20
2023-02-11T09:32:09.847Z,429.40
2023-02-11T09:33:08.808Z,483.80
2023-02-11T09:34:07.800Z,469.40
2023-02-11T09:35:07.924Z,458.80
2023-02-11T09:36:07.786Z,540.40
2023-02-11T09:37:07.964Z,502.30
2023-02-11T09:38:07.820Z,541.60
2023-02-11T14:02:28.747Z,42.80
2023-02-11T14:03:50.613Z,42.60
2023-02-11T14:04:30.531Z,59.60
2023-02-11T14:07:14.918Z,75.60
2023-02-11T14:08:16.956Z,183.10
2023-02-11T14:09:16.832Z,142.50
2023-02-11T14:10:16.113Z,168.20
2023-02-11T14:11:16.021Z,174.60
2023-02-11T14:12:16.558Z,200.20
2023-02-11T14:13:16.528Z,210.40
2023-02-11T14:14:16.639Z,207.90
2023-02-11T14:15:16.339Z,203.50
2023-02-11T14:16:22.667Z,235.90
2023-02-11T14:17:18.929Z,226.10
2023-02-11T14:18:16.433Z,251.10
2023-02-11T14:19:16.138Z,285.60
2023-02-11T14:20:16.162Z,459.60
2023-02-11T14:21:16.125Z,429.00
2023-02-11T14:22:16.498Z,482.50
2023-02-11T14:23:16.126Z,497.00
2023-02-11T14:24:16.592Z,523.70
2023-02-11T14:25:16.227Z,545.70
2023-02-11T14:26:17.737Z,527.80
2023-02-11T14:27:16.124Z,560.00
2023-02-11T14:28:16.203Z,581.20
2023-02-11T14:29:16.491Z,594.20
2023-02-11T14:30:16.204Z,558.30
2023-02-11T14:31:16.264Z,548.60
2023-02-11T14:32:16.624Z,554.10
2023-02-11T14:33:16.600Z,574.10
2023-02-11T14:34:16.134Z,570.60
2023-02-11T14:35:16.451Z,588.70
2023-02-11T14:36:33.721Z,649.80
2023-02-11T14:37:17.229Z,629.10
2023-02-11T14:38:16.333Z,587.70
2023-02-11T14:39:16.598Z,618.00
2023-02-11T14:40:16.197Z,603.80
2023-02-11T14:41:16.109Z,592.30
2023-02-11T14:42:16.592Z,637.00
2023-02-11T14:43:16.404Z,638.40
2023-02-11T14:44:16.438Z,658.60
2023-02-11T14:45:51.242Z,658.30
2023-02-11T14:46:30.437Z,613.70
2023-02-11T14:47:17.398Z,597.40
2023-02-11T14:48:16.538Z,641.20
2023-02-11T14:49:16.829Z,609.90
2023-02-11T14:50:16.492Z,619.90
2023-02-11T14:51:16.629Z,585.60
2023-02-11T14:52:16.424Z,599.60
2023-02-11T14:53:16.506Z,613.00
2023-02-11T14:54:16.512Z,600.70
2023-02-11T14:55:17.874Z,653.40
2023-02-11T14:56:16.542Z,700.40
2023-02-11T14:57:16.410Z,693.40
2023-02-11T14:58:16.463Z,658.10
2023-02-11T14:59:16.045Z,696.90
2023-02-11T15:00:16.770Z,705.20
2023-02-11T15:01:16.062Z,685.70
2023-02-11T15:02:16.169Z,681.90
2023-02-11T15:03:16.062Z,674.30
2023-02-11T15:04:16.253Z,678.90
2023-02-11T15:05:16.386Z,662.20
2023-02-11T15:06:16.387Z,704.60
2023-02-11T15:07:16.316Z,685.10
2023-02-11T15:08:16.283Z,701.90
2023-02-11T15:09:16.234Z,724.40
2023-02-11T15:10:15.850Z,707.10
2023-02-11T15:11:15.839Z,730.90
2023-02-11T15:12:16.266Z,710.30
2023-02-11T15:13:15.913Z,715.60
2023-02-11T15:14:16.214Z,733.00
2023-02-11T15:15:16.159Z,714.40
2023-02-11T15:16:16.574Z,708.40
2023-02-11T15:17:16.050Z,658.50
2023-02-11T15:18:16.098Z,643.60
2023-02-11T15:19:16.292Z,660.30
2023-02-11T15:20:16.341Z,677.10
2023-02-11T15:21:16.052Z,689.10
2023-02-11T15:22:16.339Z,724.40
2023-02-11T15:23:16.074Z,708.80
2023-02-11T15:24:16.289Z,710.80
2023-02-11T15:25:15.948Z,698.60
2023-02-11T15:26:15.871Z,674.20
2023-02-11T15:27:15.679Z,672.00
2023-02-11T15:28:15.644Z,633.10
2023-02-11T15:29:16.177Z,623.20
2023-02-11T15:30:15.829Z,624.30
2023-02-11T15:31:16.225Z,562.40
2023-02-11T15:32:16.229Z,429.50
2023-02-11T15:33:15.767Z,306.10
2023-02-11T15:34:16.054Z,245.80
2023-02-11T15:35:16.207Z,229.40
2023-02-11T15:36:16.051Z,277.50
2023-02-11T15:37:15.738Z,269.70
2023-02-11T15:38:16.302Z,354.70
2023-02-11T15:39:16.090Z,452.10
2023-02-11T15:40:16.048Z,473.70
2023-02-11T15:41:15.980Z,533.50
2023-02-11T15:42:16.084Z,592.10
2023-02-11T15:43:16.171Z,625.20
2023-02-11T15:44:16.151Z,648.00
2023-02-11T15:45:16.089Z,645.20
2023-02-11T15:46:16.297Z,611.30
2023-02-11T15:47:16.082Z,635.00
2023-02-11T15:51:47.613Z,565.70
2023-02-11T15:52:49.411Z,358.70
2023-02-11T15:53:49.330Z,268.40
2023-02-11T15:54:48.750Z,249.60
2023-02-11T15:55:49.076Z,267.40
2023-02-11T15:56:50.138Z,273.10
2023-02-11T15:59:57.701Z,299.50
2023-02-11T16:00:59.724Z,258.90
2023-02-11T16:01:59.674Z,254.30
2023-02-11T16:02:59.186Z,256.50
2023-02-11T16:03:59.194Z,260.00
2023-02-11T16:05:00.334Z,257.20
2023-02-11T16:05:59.092Z,232.60
2023-02-11T16:06:59.363Z,241.20
2023-02-11T16:07:59.037Z,249.40
2023-02-11T16:08:59.104Z,249.80
2023-02-11T16:09:58.979Z,254.90
2023-02-11T16:10:59.102Z,269.90
2023-02-11T16:11:59.076Z,299.10
2023-02-11T16:12:59.389Z,439.70
2023-02-11T16:14:46.330Z,570.60
2023-02-11T16:14:59.936Z,611.60
2023-02-11T16:15:59.178Z,624.70
2023-02-11T16:16:59.248Z,663.90
2023-02-11T16:18:04.326Z,660.50
2023-02-11T16:19:04.976Z,666.50
2023-02-11T16:22:43.441Z,588.50
2023-02-11T16:23:45.301Z,596.30
2023-02-11T16:24:44.776Z,625.10
2023-02-11T16:25:44.491Z,631.40
2023-02-11T16:27:16.711Z,663.00
2023-02-11T16:27:45.005Z,641.30
2023-02-11T16:28:45.317Z,656.30
2023-02-11T16:29:44.832Z,640.00
2023-02-11T16:30:44.955Z,657.10
2023-02-11T16:31:44.776Z,681.80
2023-02-11T16:32:44.715Z,688.70
2023-02-11T16:33:56.278Z,702.50
2023-02-11T16:34:45.573Z,701.10
2023-02-11T16:35:44.852Z,701.20
2023-02-11T16:36:44.910Z,678.50
2023-02-11T16:37:44.627Z,686.20
2023-02-11T16:38:44.583Z,678.40
2023-02-11T16:39:44.745Z,696.20
2023-02-11T16:40:44.208Z,684.40
2023-02-11T16:41:44.572Z,677.50
2023-02-11T16:42:44.508Z,667.80
2023-02-11T16:43:44.260Z,651.20
2023-02-11T16:44:44.687Z,641.50
2023-02-11T16:45:44.318Z,630.80
2023-02-11T16:46:44.839Z,647.60
2023-02-11T16:47:44.308Z,657.20
2023-02-11T16:48:45.641Z,646.60
2023-02-11T16:49:44.443Z,648.50
2023-02-11T16:50:44.772Z,628.60
2023-02-11T16:51:44.510Z,642.60
2023-02-11T16:52:44.140Z,647.40
2023-02-11T16:53:44.455Z,659.20
2023-02-11T16:54:44.258Z,633.40
2023-02-11T16:55:44.709Z,639.50
2023-02-11T16:56:44.180Z,646.50
2023-02-11T16:57:43.941Z,651.40
2023-02-11T16:58:44.288Z,651.90
2023-02-11T16:59:44.175Z,643.00
2023-02-11T17:00:44.006Z,624.80
2023-02-11T17:01:43.906Z,632.00
2023-02-11T17:02:44.079Z,601.80
2023-02-11T17:03:43.944Z,591.10
2023-02-11T17:04:43.952Z,600.80
2023-02-11T17:05:54.980Z,594.80
2023-02-11T17:06:45.989Z,603.00
2023-02-11T17:07:43.923Z,570.40
2023-02-11T17:08:44.058Z,514.60
2023-02-11T17:09:43.776Z,575.60
2023-02-11T17:10:43.966Z,584.80
2023-02-11T17:11:44.405Z,622.60
2023-02-11T17:12:44.885Z,629.60
2023-02-11T17:14:17.060Z,633.50
2023-02-11T17:14:44.255Z,649.20
2023-02-11T17:15:44.087Z,593.90
2023-02-11T17:16:44.470Z,595.70
2023-02-11T17:17:44.202Z,578.80
2023-02-11T17:18:44.170Z,437.90
2023-02-11T17:19:44.381Z,331.10
2023-02-11T17:20:44.036Z,320.50
2023-02-11T17:21:44.022Z,282.40
2023-02-11T17:22:44.109Z,262.00
2023-02-11T17:23:43.891Z,252.90
2023-02-11T17:24:43.850Z,255.50
2023-02-11T17:25:44.299Z,245.00
2023-02-11T17:26:43.853Z,227.70
2023-02-11T17:27:43.741Z,235.50
2023-02-11T17:28:43.842Z,244.50
2023-02-11T17:29:43.703Z,249.70
2023-02-11T17:30:44.160Z,249.70
2023-02-11T17:31:44.230Z,231.30
2023-02-11T17:32:43.823Z,239.20
2023-02-11T17:33:43.770Z,300.40
2023-02-11T17:34:43.724Z,343.40
2023-02-11T17:35:43.679Z,337.50
2023-02-11T17:36:43.829Z,460.50
2023-02-11T17:37:43.901Z,510.50
2023-02-11T17:38:43.778Z,584.30